Time;durP1;ratioP1;P1;durP2;ratioP2;P2;SDS_P1;SDS_P2;PMS_P1;PMS_P2;Temp;Humidity;BMP_temperature;BMP_pressure;BME280_temperature;BME280_humidity;BME280_pressure;Samples;Min_cycle;Max_cycle;Signal;HPM_P1;HPM_P2
2021/01/12 00:00:31;;;;;;;7.22;3.20;;;-1.90;99.90;;;;;;5009813;28;20037;-54
2021/01/12 00:02:59;;;;;;;8.50;3.13;;;-2.00;99.90;;;;;;5011576;28;20389;-56
2021/01/12 00:05:25;;;;;;;10.85;3.88;;;-2.10;99.90;;;;;;5007330;28;20129;-53
2021/01/12 00:07:51;;;;;;;7.90;3.20;;;-2.20;99.90;;;;;;4987667;28;20584;-55
2021/01/12 00:10:21;;;;;;;7.55;3.08;;;-2.20;99.90;;;;;;5010003;28;20040;-57
2021/01/12 00:12:47;;;;;;;7.57;3.15;;;-2.30;99.90;;;;;;5006677;28;20549;-55
2021/01/12 00:15:14;;;;;;;7.55;3.40;;;-2.30;99.90;;;;;;5010868;28;20061;-54
2021/01/12 00:17:42;;;;;;;10.48;3.70;;;-2.40;99.90;;;;;;5010000;28;20037;-56
2021/01/12 00:20:10;;;;;;;8.85;4.20;;;-2.30;99.90;;;;;;5009937;28;20057;-54
2021/01/12 00:22:36;;;;;;;9.02;3.55;;;-2.40;99.90;;;;;;5009934;28;20337;-56
2021/01/12 00:25:04;;;;;;;10.05;3.85;;;-2.40;99.90;;;;;;5009783;28;20120;-55
2021/01/12 00:27:30;;;;;;;8.75;4.35;;;-2.50;99.90;;;;;;5010870;28;20026;-56
2021/01/12 00:29:56;;;;;;;8.82;3.53;;;-2.40;99.90;;;;;;5010259;28;20046;-58
2021/01/12 00:32:24;;;;;;;10.15;4.18;;;-2.40;99.90;;;;;;5010328;28;20106;-50
2021/01/12 00:34:51;;;;;;;9.95;3.78;;;-2.30;99.90;;;;;;5010844;28;20064;-53
2021/01/12 00:37:18;;;;;;;11.50;5.60;;;-2.40;99.90;;;;;;5007961;28;20112;-54
2021/01/12 00:39:44;;;;;;;10.80;4.35;;;-2.30;99.90;;;;;;5010614;28;20034;-51
2021/01/12 00:42:10;;;;;;;8.65;3.97;;;-2.30;99.90;;;;;;5009037;28;20060;-54
2021/01/12 00:44:36;;;;;;;8.30;4.38;;;-2.30;99.90;;;;;;5011078;28;20496;-54
2021/01/12 00:47:02;;;;;;;8.65;4.63;;;-2.30;99.90;;;;;;4997262;28;20037;-56
2021/01/12 00:49:28;;;;;;;10.93;4.80;;;-2.30;99.90;;;;;;5010610;28;20037;-53
2021/01/12 00:51:54;;;;;;;14.55;5.55;;;-2.30;99.90;;;;;;5009306;28;20041;-52
2021/01/12 00:54:23;;;;;;;13.75;5.22;;;-2.30;99.90;;;;;;5010265;28;20089;-56
2021/01/12 00:56:50;;;;;;;15.90;5.45;;;-2.40;99.90;;;;;;5008048;28;20493;-56
2021/01/12 00:59:16;;;;;;;13.32;6.10;;;-2.40;99.90;;;;;;5010213;28;20041;-54
2021/01/12 01:01:45;;;;;;;15.77;6.30;;;-2.40;99.90;;;;;;5008903;28;20074;-54
2021/01/12 01:04:16;;;;;;;15.65;6.65;;;-2.40;99.90;;;;;;5008260;28;20069;-55
2021/01/12 01:06:43;;;;;;;14.80;6.18;;;-2.20;99.90;;;;;;5010490;28;20033;-52
2021/01/12 01:09:11;;;;;;;11.48;5.00;;;-2.30;99.90;;;;;;5008173;28;20053;-52
2021/01/12 01:11:54;;;;;;;11.60;5.20;;;-2.30;99.90;;;;;;5010053;28;20050;-54
2021/01/12 01:14:20;;;;;;;13.07;5.95;;;-2.40;99.90;;;;;;5009190;28;20071;-57
2021/01/12 01:16:47;;;;;;;10.15;4.70;;;-2.50;99.90;;;;;;5008299;28;20040;-56
2021/01/12 01:19:14;;;;;;;13.68;6.03;;;-2.50;99.90;;;;;;5009950;28;20034;-56
2021/01/12 01:21:40;;;;;;;11.55;5.10;;;-2.60;99.90;;;;;;5007663;28;20034;-55
2021/01/12 01:24:09;;;;;;;12.13;5.70;;;-2.40;99.90;;;;;;5007864;28;20038;-55
2021/01/12 01:26:35;;;;;;;9.80;5.10;;;-2.40;99.90;;;;;;5009653;28;20040;-55
2021/01/12 01:29:02;;;;;;;12.63;5.78;;;-2.50;99.90;;;;;;5010148;28;20037;-56
2021/01/12 01:31:35;;;;;;;12.63;5.70;;;-2.50;99.90;;;;;;5007557;28;20037;-54
2021/01/12 01:34:01;;;;;;;11.80;5.72;;;-2.50;99.90;;;;;;5007874;28;20076;-54
2021/01/12 01:36:27;;;;;;;12.95;5.28;;;-2.50;99.90;;;;;;5007069;28;20096;-54
2021/01/12 01:38:52;;;;;;;14.23;5.90;;;-2.60;99.90;;;;;;5010031;28;20323;-56
2021/01/12 01:41:18;;;;;;;12.68;4.85;;;-2.70;99.90;;;;;;5008518;28;20058;-53
2021/01/12 01:43:44;;;;;;;9.90;5.20;;;-2.80;99.90;;;;;;5006588;28;20136;-54
2021/01/12 01:46:10;;;;;;;14.40;5.68;;;-2.90;99.90;;;;;;5006940;28;20061;-56
2021/01/12 01:48:36;;;;;;;15.02;7.05;;;-2.90;99.90;;;;;;5009358;28;20087;-53
2021/01/12 01:51:03;;;;;;;10.80;5.47;;;-2.90;99.90;;;;;;5006550;28;20045;-54
2021/01/12 01:53:33;;;;;;;11.05;5.72;;;-2.80;99.90;;;;;;5006721;28;20041;-56
2021/01/12 01:56:03;;;;;;;12.48;5.85;;;-3.00;99.90;;;;;;5005941;28;20604;-55
2021/01/12 01:58:29;;;;;;;14.32;6.72;;;-3.00;99.90;;;;;;5007236;28;20092;-56
2021/01/12 02:00:55;;;;;;;15.65;6.78;;;-3.10;99.90;;;;;;5009425;28;20372;-54
2021/01/12 02:03:45;;;;;;;14.50;6.18;;;-3.10;99.90;;;;;;5006671;28;20065;-53
2021/01/12 02:06:18;;;;;;;12.30;5.55;;;-3.00;99.90;;;;;;5009204;28;20053;-54
2021/01/12 02:09:04;;;;;;;14.52;7.18;;;-2.90;99.90;;;;;;5006081;28;20117;-55
2021/01/12 02:11:34;;;;;;;10.02;5.57;;;-3.00;99.90;;;;;;5009096;28;20045;-54
2021/01/12 02:14:04;;;;;;;13.95;6.47;;;-3.00;99.90;;;;;;5006817;28;20042;-55
2021/01/12 02:16:33;;;;;;;12.05;6.22;;;-3.10;99.90;;;;;;4990207;28;20033;-55
2021/01/12 02:19:00;;;;;;;10.55;5.38;;;-3.20;99.90;;;;;;5008924;28;20026;-54
2021/01/12 02:21:41;;;;;;;13.65;6.43;;;-3.20;99.90;;;;;;5006378;28;20062;-55
2021/01/12 02:24:09;;;;;;;13.65;6.03;;;-3.20;99.90;;;;;;5008774;28;20105;-57
2021/01/12 02:26:35;;;;;;;12.05;5.55;;;-3.30;99.90;;;;;;5007914;28;20037;-57
2021/01/12 02:29:01;;;;;;;10.82;5.20;;;-3.30;99.90;;;;;;5007147;28;20065;-56
2021/01/12 02:31:30;;;;;;;13.13;5.18;;;-3.30;99.90;;;;;;5006599;28;20042;-56
2021/01/12 02:34:00;;;;;;;15.40;5.35;;;-3.30;99.90;;;;;;5007473;28;20034;-56
2021/01/12 02:36:28;;;;;;;10.10;4.93;;;-3.40;99.90;;;;;;5007327;28;20041;-53
2021/01/12 02:38:54;;;;;;;10.60;5.15;;;-3.50;99.90;;;;;;5007006;28;20030;-54
2021/01/12 02:41:20;;;;;;;13.45;5.38;;;-3.50;99.90;;;;;;5008537;28;20022;-52
2021/01/12 02:43:47;;;;;;;11.85;5.53;;;-3.50;99.90;;;;;;5009659;28;20393;-58
2021/01/12 02:46:16;;;;;;;11.32;5.07;;;-3.50;99.90;;;;;;5009157;28;20029;-52
2021/01/12 02:48:42;;;;;;;12.82;5.63;;;-3.50;99.90;;;;;;5007529;28;20038;-53
2021/01/12 02:51:07;;;;;;;15.07;5.57;;;-3.50;99.90;;;;;;5012204;28;20378;-53
2021/01/12 02:53:33;;;;;;;11.70;4.55;;;-3.50;99.90;;;;;;5008554;28;20034;-54
2021/01/12 02:55:59;;;;;;;11.35;5.20;;;-3.50;99.90;;;;;;5006642;28;20096;-52
2021/01/12 02:58:25;;;;;;;11.52;5.00;;;-3.50;99.90;;;;;;5008781;28;20042;-52
2021/01/12 03:00:51;;;;;;;11.55;5.35;;;-3.50;99.90;;;;;;5006842;28;20045;-56
2021/01/12 03:03:17;;;;;;;10.05;4.47;;;-3.40;99.90;;;;;;5007019;28;20034;-55
2021/01/12 03:05:43;;;;;;;10.18;4.75;;;-3.40;99.90;;;;;;5174795;22;20393;-54
2021/01/12 03:08:09;;;;;;;11.32;5.15;;;-3.40;99.90;;;;;;5018856;28;20129;-54
2021/01/12 03:10:35;;;;;;;10.80;4.35;;;-3.40;99.90;;;;;;5006590;28;20433;-54
2021/01/12 03:13:01;;;;;;;13.20;5.47;;;-3.50;99.90;;;;;;5006936;28;20091;-52
2021/01/12 03:15:26;;;;;;;10.18;4.55;;;-3.50;99.90;;;;;;5006894;28;20045;-52
2021/01/12 03:17:52;;;;;;;14.38;5.93;;;-3.60;99.90;;;;;;5007643;28;20049;-54
2021/01/12 03:20:18;;;;;;;12.32;4.97;;;-3.60;99.90;;;;;;5010096;28;20025;-54
2021/01/12 03:22:44;;;;;;;10.40;4.72;;;-3.50;99.90;;;;;;5011354;28;20896;-58
2021/01/12 03:25:10;;;;;;;14.02;5.25;;;-3.50;99.90;;;;;;5010290;28;20038;-52
2021/01/12 03:27:36;;;;;;;10.00;4.90;;;-3.50;99.90;;;;;;5012066;28;20397;-54
2021/01/12 03:30:04;;;;;;;13.80;6.32;;;-3.60;99.90;;;;;;5012062;28;20038;-54
2021/01/12 03:32:30;;;;;;;13.35;5.95;;;-3.50;99.90;;;;;;5011596;28;20510;-55
2021/01/12 03:34:55;;;;;;;14.70;6.35;;;-3.60;99.90;;;;;;5010718;28;20073;-58
2021/01/12 03:37:22;;;;;;;15.27;5.20;;;-3.60;99.90;;;;;;5009947;28;20073;-50
2021/01/12 03:39:48;;;;;;;11.13;5.28;;;-3.60;99.90;;;;;;5010094;28;20072;-56
2021/01/12 03:42:13;;;;;;;10.68;4.90;;;-3.70;99.90;;;;;;5010077;28;20604;-53
2021/01/12 03:44:41;;;;;;;13.18;5.47;;;-3.70;99.90;;;;;;5009913;28;20072;-55
2021/01/12 03:47:09;;;;;;;10.68;4.97;;;-3.70;99.90;;;;;;5010085;28;20273;-55
2021/01/12 03:49:34;;;;;;;12.43;4.82;;;-3.70;99.90;;;;;;5011563;28;20038;-55
2021/01/12 03:52:00;;;;;;;11.73;5.28;;;-3.70;99.90;;;;;;5009641;28;20517;-53
2021/01/12 03:54:26;;;;;;;7.88;3.97;;;-3.70;99.90;;;;;;5010044;28;20030;-53
2021/01/12 03:56:52;;;;;;;9.45;4.55;;;-3.60;99.90;;;;;;5010794;28;20545;-55
2021/01/12 03:59:17;;;;;;;7.68;3.85;;;-3.60;99.90;;;;;;5011705;28;20029;-55
2021/01/12 04:01:44;;;;;;;9.80;4.07;;;-3.50;99.90;;;;;;5009512;28;20049;-56
2021/01/12 04:04:10;;;;;;;9.60;4.00;;;-3.40;99.90;;;;;;5009990;28;20386;-57
2021/01/12 04:06:36;;;;;;;8.68;3.55;;;-3.50;99.90;;;;;;5007559;28;20049;-53
2021/01/12 04:09:04;;;;;;;9.45;4.25;;;-3.50;99.90;;;;;;5011320;28;20037;-54
2021/01/12 04:11:34;;;;;;;8.75;3.33;;;-3.40;99.90;;;;;;5009568;28;20325;-55
2021/01/12 04:14:01;;;;;;;7.82;4.20;;;-3.40;99.90;;;;;;5009526;28;20034;-57
2021/01/12 04:16:27;;;;;;;8.63;3.65;;;-3.40;99.90;;;;;;5010610;28;20061;-58
2021/01/12 04:18:53;;;;;;;10.90;4.18;;;-3.40;99.90;;;;;;5011092;28;20116;-54
2021/01/12 04:21:18;;;;;;;8.23;3.88;;;-3.60;99.90;;;;;;5010205;28;20045;-54
2021/01/12 04:23:44;;;;;;;10.90;4.65;;;-3.80;99.90;;;;;;5005370;28;20042;-56
2021/01/12 04:26:10;;;;;;;6.28;3.08;;;-3.90;99.90;;;;;;5009786;28;20119;-56
2021/01/12 04:28:36;;;;;;;10.50;4.40;;;-3.90;99.90;;;;;;5011518;28;20076;-54
2021/01/12 04:31:02;;;;;;;13.75;4.78;;;-3.90;99.90;;;;;;5009591;28;20056;-53
2021/01/12 04:33:28;;;;;;;7.93;4.05;;;-3.80;99.90;;;;;;5010992;28;20537;-52
2021/01/12 04:35:54;;;;;;;8.23;4.05;;;-3.80;99.90;;;;;;5008824;28;20041;-54
2021/01/12 04:38:19;;;;;;;10.00;4.20;;;-3.90;99.90;;;;;;5009429;28;20033;-55
2021/01/12 04:40:45;;;;;;;12.25;3.78;;;-3.90;99.90;;;;;;5010018;28;20041;-55
2021/01/12 04:43:12;;;;;;;12.85;3.92;;;-3.90;99.90;;;;;;5010832;28;20499;-54
2021/01/12 04:45:39;;;;;;;11.15;4.20;;;-3.80;99.90;;;;;;5004725;28;20172;-57
2021/01/12 04:48:06;;;;;;;10.70;4.57;;;-3.80;99.90;;;;;;5007539;28;20034;-56
2021/01/12 04:50:32;;;;;;;9.35;4.65;;;-3.80;99.90;;;;;;5010904;28;20128;-54
2021/01/12 04:52:58;;;;;;;11.48;4.28;;;-3.80;99.90;;;;;;5009322;28;20136;-53
2021/01/12 04:55:24;;;;;;;8.73;3.00;;;-3.80;99.90;;;;;;5010587;28;20110;-56
2021/01/12 04:57:50;;;;;;;7.75;3.75;;;-3.70;99.90;;;;;;5007983;28;20034;-57
2021/01/12 05:00:23;;;;;;;8.85;3.67;;;-3.80;99.90;;;;;;5010320;28;20109;-56
2021/01/12 05:03:08;;;;;;;10.82;4.40;;;-3.80;99.90;;;;;;5007862;28;20477;-57
2021/01/12 05:05:35;;;;;;;9.25;3.40;;;-3.80;99.90;;;;;;5010158;28;20140;-53
2021/01/12 05:08:09;;;;;;;9.82;3.65;;;-3.70;99.90;;;;;;5005689;28;20037;-57
2021/01/12 05:10:43;;;;;;;10.18;4.13;;;-3.70;99.90;;;;;;5008488;28;20105;-57
2021/01/12 05:13:11;;;;;;;8.90;3.38;;;-3.40;99.90;;;;;;5008339;28;20034;-53
2021/01/12 05:15:37;;;;;;;8.57;3.63;;;-3.40;99.90;;;;;;5010047;28;20462;-53
2021/01/12 05:18:10;;;;;;;8.73;3.17;;;-3.10;99.90;;;;;;5006895;28;20026;-54
2021/01/12 05:20:45;;;;;;;7.63;3.70;;;-2.60;99.90;;;;;;5007320;28;20065;-57
2021/01/12 05:23:13;;;;;;;7.50;2.97;;;-2.30;99.90;;;;;;5008440;28;20029;-54
2021/01/12 05:25:40;;;;;;;7.45;2.88;;;-2.30;99.90;;;;;;4990468;28;20030;-55
2021/01/12 05:28:13;;;;;;;7.70;2.53;;;-2.30;99.90;;;;;;4995767;28;20132;-51
2021/01/12 05:30:38;;;;;;;7.35;2.55;;;-2.30;99.90;;;;;;5010022;28;20085;-57
2021/01/12 05:33:04;;;;;;;7.15;3.03;;;-2.20;99.90;;;;;;5007074;28;20442;-56
2021/01/12 05:35:38;;;;;;;6.05;2.67;;;-2.00;99.90;;;;;;5006924;28;20038;-55
2021/01/12 05:38:09;;;;;;;9.45;2.67;;;-1.90;99.90;;;;;;5007178;28;20120;-56
2021/01/12 05:40:40;;;;;;;5.10;2.63;;;-1.80;99.90;;;;;;5008782;28;20378;-53
2021/01/12 05:43:11;;;;;;;6.47;2.80;;;-1.80;99.90;;;;;;5008068;28;20095;-54
2021/01/12 05:45:39;;;;;;;7.97;3.28;;;-1.70;99.90;;;;;;5009892;28;20366;-57
2021/01/12 05:48:06;;;;;;;6.10;2.88;;;-1.70;99.90;;;;;;5008759;28;20041;-55
2021/01/12 05:50:33;;;;;;;8.32;3.60;;;-1.60;99.90;;;;;;5008647;28;20471;-57
2021/01/12 05:53:15;;;;;;;8.68;3.10;;;-1.60;99.90;;;;;;5009503;28;20387;-56
2021/01/12 05:55:44;;;;;;;8.63;3.28;;;-1.70;99.90;;;;;;5008372;28;20505;-55
2021/01/12 05:58:20;;;;;;;5.95;2.80;;;-1.80;99.90;;;;;;5007187;28;20034;-56
2021/01/12 06:00:50;;;;;;;8.23;2.97;;;-1.90;99.90;;;;;;5006516;28;20200;-56
2021/01/12 06:03:19;;;;;;;6.25;2.58;;;-1.90;99.90;;;;;;5007621;28;20037;-55
2021/01/12 06:05:46;;;;;;;7.68;2.42;;;-1.70;99.90;;;;;;5009225;28;20060;-55
2021/01/12 06:08:16;;;;;;;8.23;2.72;;;-1.60;99.90;;;;;;5008657;28;20038;-56
2021/01/12 06:10:44;;;;;;;5.80;2.80;;;-1.70;99.90;;;;;;5002987;28;20401;-58
2021/01/12 06:13:19;;;;;;;11.13;3.25;;;-1.80;99.90;;;;;;4989073;28;20079;-57
2021/01/12 06:15:48;;;;;;;9.17;3.33;;;-1.80;99.90;;;;;;5007348;28;20085;-56
2021/01/12 06:18:18;;;;;;;14.85;3.38;;;-1.90;99.90;;;;;;5007546;28;20103;-55
2021/01/12 06:21:11;;;;;;;9.10;3.15;;;-1.90;99.90;;;;;;5009094;28;20150;-58
2021/01/12 06:23:44;;;;;;;6.10;2.08;;;-1.80;99.90;;;;;;5004770;28;20038;-58
2021/01/12 06:26:12;;;;;;;6.35;2.75;;;-1.90;99.90;;;;;;4988360;28;20522;-55
2021/01/12 06:28:40;;;;;;;6.18;2.30;;;-1.80;99.90;;;;;;5005981;28;20375;-57
2021/01/12 06:31:09;;;;;;;12.40;2.60;;;-1.70;99.90;;;;;;5005951;28;20045;-58
2021/01/12 06:33:35;;;;;;;6.28;2.90;;;-1.70;99.90;;;;;;5002597;28;20081;-59
2021/01/12 06:36:02;;;;;;;9.80;3.40;;;-1.70;99.90;;;;;;5006445;28;20042;-59
2021/01/12 06:38:29;;;;;;;15.82;4.30;;;-1.70;99.90;;;;;;5009061;28;20037;-57
2021/01/12 06:40:58;;;;;;;6.65;2.92;;;-1.70;99.90;;;;;;5008310;28;20048;-56
2021/01/12 06:43:25;;;;;;;8.38;3.35;;;-1.70;99.90;;;;;;5007361;28;20125;-55
2021/01/12 06:45:52;;;;;;;6.40;2.97;;;-1.70;99.90;;;;;;5007525;28;20125;-53
2021/01/12 06:48:19;;;;;;;11.43;2.95;;;-1.80;99.90;;;;;;5008882;28;20038;-58
2021/01/12 06:50:48;;;;;;;6.07;2.35;;;-1.80;99.90;;;;;;5007407;28;20049;-55
2021/01/12 06:53:15;;;;;;;6.35;1.88;;;-1.70;99.90;;;;;;5008131;28;20037;-56
2021/01/12 06:55:42;;;;;;;4.57;2.05;;;-1.70;99.90;;;;;;5009592;28;20064;-57
2021/01/12 06:58:10;;;;;;;11.25;5.25;;;-1.70;99.90;;;;;;5009623;28;20026;-55
2021/01/12 07:00:37;;;;;;;8.50;2.85;;;-1.90;99.90;;;;;;5011315;28;20188;-58
2021/01/12 07:03:05;;;;;;;7.47;3.10;;;-1.90;99.90;;;;;;5008208;28;20487;-55
2021/01/12 07:05:39;;;;;;;15.80;2.97;;;-1.80;99.90;;;;;;5010331;28;20060;-57
2021/01/12 07:08:09;;;;;;;7.05;2.85;;;-1.60;99.90;;;;;;5009308;28;20041;-55
2021/01/12 07:10:46;;;;;;;10.05;3.58;;;-1.60;99.90;;;;;;5012412;28;20022;-54
2021/01/12 07:13:12;;;;;;;8.20;3.15;;;-1.60;99.90;;;;;;5012743;28;20033;-57
2021/01/12 07:15:44;;;;;;;8.45;3.53;;;-1.70;99.90;;;;;;5010691;28;20026;-55
2021/01/12 07:18:10;;;;;;;14.20;3.92;;;-1.80;99.90;;;;;;5012070;28;20037;-57
2021/01/12 07:20:37;;;;;;;7.40;3.08;;;-1.90;99.90;;;;;;5012303;28;20036;-55
2021/01/12 07:23:05;;;;;;;8.80;3.30;;;-1.80;99.90;;;;;;5012113;28;20250;-57
2021/01/12 07:25:37;;;;;;;9.77;3.45;;;-1.90;99.90;;;;;;5012344;28;20912;-57
2021/01/12 07:28:14;;;;;;;8.70;3.45;;;-1.90;99.90;;;;;;5012025;28;20168;-58
2021/01/12 07:30:49;;;;;;;8.20;3.40;;;-1.90;99.90;;;;;;5011891;28;20128;-57
2021/01/12 07:33:21;;;;;;;10.25;4.13;;;-1.70;99.90;;;;;;5012194;28;20045;-57
2021/01/12 07:35:55;;;;;;;11.27;3.33;;;-1.60;99.90;;;;;;5012071;28;20489;-56
2021/01/12 07:38:23;;;;;;;14.70;3.72;;;-1.40;99.90;;;;;;5012272;28;20052;-57
2021/01/12 07:40:50;;;;;;;13.93;4.18;;;-1.30;99.90;;;;;;5011852;28;20083;-57
2021/01/12 07:43:22;;;;;;;8.40;3.33;;;-1.30;99.90;;;;;;5011946;28;20029;-57
2021/01/12 07:45:48;;;;;;;13.18;4.18;;;-1.20;99.90;;;;;;5012082;28;20389;-57
2021/01/12 07:48:15;;;;;;;8.40;4.07;;;-1.20;99.90;;;;;;5011834;28;20100;-55
2021/01/12 07:50:48;;;;;;;13.07;4.55;;;-1.20;99.90;;;;;;5011894;28;20501;-58
2021/01/12 07:53:14;;;;;;;10.50;3.45;;;-1.10;99.90;;;;;;5011627;28;20038;-55
2021/01/12 07:55:47;;;;;;;9.88;4.10;;;-1.10;99.90;;;;;;5011589;28;20034;-55
2021/01/12 07:58:15;;;;;;;15.02;4.38;;;-1.00;99.90;;;;;;4994225;28;20502;-57
2021/01/12 08:00:42;;;;;;;8.45;3.95;;;-1.00;99.90;;;;;;4992059;28;20113;-57
2021/01/12 08:03:08;;;;;;;10.68;3.75;;;-0.90;98.90;;;;;;5004904;28;20036;-57
2021/01/12 08:05:34;;;;;;;7.00;2.70;;;-0.80;98.00;;;;;;5010148;28;20061;-57
2021/01/12 08:08:04;;;;;;;6.95;2.72;;;-0.70;96.80;;;;;;5011350;28;20030;-55
2021/01/12 08:10:31;;;;;;;7.97;3.17;;;-0.70;96.00;;;;;;5011461;28;20172;-56
2021/01/12 08:13:23;;;;;;;7.15;3.47;;;-0.50;96.00;;;;;;5011315;28;20029;-54
2021/01/12 08:15:50;;;;;;;10.23;4.70;;;-0.50;96.60;;;;;;5009283;28;20184;-57
2021/01/12 08:18:20;;;;;;;9.68;3.60;;;-0.50;97.80;;;;;;5011123;28;20038;-57
2021/01/12 08:20:47;;;;;;;8.48;3.83;;;-0.50;96.20;;;;;;5011007;28;20026;-57
2021/01/12 08:23:19;;;;;;;14.25;4.35;;;-0.50;95.90;;;;;;5011454;28;20618;-57
2021/01/12 08:25:45;;;;;;;11.23;3.83;;;-0.40;94.80;;;;;;5011419;28;20041;-57
2021/01/12 08:28:20;;;;;;;7.57;3.40;;;-0.20;95.00;;;;;;5011011;28;20039;-57
2021/01/12 08:30:46;;;;;;;8.70;3.50;;;-0.20;94.00;;;;;;5010274;28;20211;-57
2021/01/12 08:33:31;;;;;;;15.52;5.35;;;-0.20;94.10;;;;;;4993101;28;20545;-55
2021/01/12 08:36:10;;;;;;;9.15;2.72;;;-0.20;94.30;;;;;;4991435;28;20041;-57
2021/01/12 08:38:37;;;;;;;7.80;3.50;;;-0.20;94.60;;;;;;4991089;28;20145;-57
2021/01/12 08:41:06;;;;;;;12.45;3.80;;;-0.20;94.30;;;;;;4991091;28;20037;-57
2021/01/12 08:43:32;;;;;;;14.85;3.90;;;-0.20;95.00;;;;;;4991107;28;20034;-57
2021/01/12 08:46:03;;;;;;;13.20;3.72;;;-0.20;94.30;;;;;;4991966;28;20034;-57
2021/01/12 08:48:29;;;;;;;8.05;3.47;;;-0.20;94.30;;;;;;4991283;28;20121;-57
2021/01/12 08:50:55;;;;;;;11.30;3.70;;;-0.10;95.00;;;;;;4991233;28;20121;-57
2021/01/12 08:53:29;;;;;;;15.20;3.75;;;-0.10;95.80;;;;;;4991172;28;20041;-57
2021/01/12 08:56:19;;;;;;;7.47;3.40;;;0.00;94.90;;;;;;4991116;28;20038;-57
2021/01/12 08:58:45;;;;;;;7.80;3.30;;;0.10;93.30;;;;;;5009417;28;20414;-57
2021/01/12 09:01:14;;;;;;;9.13;3.25;;;0.20;93.60;;;;;;5010440;28;20037;-58
2021/01/12 09:03:58;;;;;;;11.88;3.40;;;0.30;93.00;;;;;;4992754;28;20383;-57
2021/01/12 09:06:24;;;;;;;26.52;4.97;;;0.40;93.00;;;;;;4990297;28;20062;-57
2021/01/12 09:08:50;;;;;;;15.02;3.55;;;0.40;91.20;;;;;;5005667;28;20068;-57
2021/01/12 09:11:19;;;;;;;9.23;2.97;;;0.50;92.60;;;;;;5009799;28;20112;-58
2021/01/12 09:13:49;;;;;;;9.10;2.70;;;0.60;90.80;;;;;;5009547;28;20045;-58
2021/01/12 09:16:18;;;;;;;7.68;2.58;;;0.70;89.70;;;;;;4994711;28;20095;-55
2021/01/12 09:18:44;;;;;;;10.43;3.15;;;0.90;87.90;;;;;;4989573;28;20030;-57
2021/01/12 09:21:10;;;;;;;8.18;2.80;;;1.00;89.40;;;;;;4990130;28;20148;-58
2021/01/12 09:23:37;;;;;;;10.43;3.03;;;1.10;89.80;;;;;;4990272;28;20033;-57
2021/01/12 09:26:04;;;;;;;11.50;3.25;;;1.30;85.00;;;;;;4990901;28;20501;-58
2021/01/12 09:28:37;;;;;;;9.48;3.10;;;1.50;86.30;;;;;;5007478;28;20038;-58
2021/01/12 09:31:08;;;;;;;10.68;2.40;;;1.50;84.60;;;;;;5009672;28;20053;-58
2021/01/12 09:33:37;;;;;;;5.40;2.30;;;1.70;80.20;;;;;;5009854;28;20169;-58
2021/01/12 09:36:04;;;;;;;6.05;2.78;;;1.70;78.50;;;;;;5009603;28;20058;-58
2021/01/12 09:38:41;;;;;;;5.85;2.38;;;1.90;77.80;;;;;;4996448;28;20153;-58
2021/01/12 09:41:08;;;;;;;5.28;2.20;;;2.00;78.60;;;;;;4990073;28;20066;-58
2021/01/12 09:43:34;;;;;;;6.28;2.63;;;2.10;79.50;;;;;;4990102;28;20161;-58
2021/01/12 09:46:00;;;;;;;5.57;2.65;;;2.30;80.10;;;;;;4990116;28;20196;-58
2021/01/12 09:48:26;;;;;;;4.80;2.20;;;2.50;76.60;;;;;;4990183;28;20038;-58
2021/01/12 09:50:52;;;;;;;5.18;2.33;;;2.60;79.40;;;;;;4989836;28;20501;-58
2021/01/12 09:53:18;;;;;;;7.82;2.80;;;2.50;75.50;;;;;;4990252;28;20066;-58
2021/01/12 09:55:43;;;;;;;9.30;2.33;;;2.50;73.20;;;;;;4989750;28;20037;-59
2021/01/12 09:58:10;;;;;;;8.23;2.55;;;2.50;75.50;;;;;;5003678;28;20025;-58
2021/01/12 10:00:36;;;;;;;5.43;2.60;;;2.50;75.90;;;;;;5009285;28;20060;-58
2021/01/12 10:03:03;;;;;;;7.97;2.85;;;2.50;73.70;;;;;;5005517;28;20104;-58
2021/01/12 10:05:29;;;;;;;6.88;3.17;;;2.60;75.60;;;;;;5000641;28;20045;-58
2021/01/12 10:07:55;;;;;;;7.22;3.67;;;2.70;74.50;;;;;;5009385;28;20385;-58
2021/01/12 10:10:21;;;;;;;8.48;3.88;;;2.70;74.80;;;;;;5009248;28;20373;-58
2021/01/12 10:12:46;;;;;;;7.60;3.35;;;2.70;76.20;;;;;;5009131;28;20497;-58
2021/01/12 10:15:12;;;;;;;8.13;3.30;;;2.80;77.70;;;;;;5009056;28;20029;-58
2021/01/12 10:17:38;;;;;;;8.60;3.38;;;2.80;77.80;;;;;;5009357;28;20118;-58
2021/01/12 10:20:05;;;;;;;7.47;3.55;;;2.90;72.50;;;;;;5009055;28;20125;-57
2021/01/12 10:22:31;;;;;;;9.00;3.83;;;2.90;72.90;;;;;;4996410;28;20116;-58
2021/01/12 10:24:59;;;;;;;9.20;4.65;;;2.90;72.80;;;;;;5007672;28;20037;-59
2021/01/12 10:27:26;;;;;;;12.82;4.80;;;2.90;70.50;;;;;;5008773;28;20045;-58
2021/01/12 10:29:51;;;;;;;9.68;3.83;;;2.90;70.70;;;;;;5008428;28;20041;-58
2021/01/12 10:32:19;;;;;;;7.90;3.60;;;2.80;71.30;;;;;;5009144;28;20036;-58
2021/01/12 10:34:44;;;;;;;9.68;4.43;;;2.80;71.80;;;;;;5009163;28;20478;-58
2021/01/12 10:37:14;;;;;;;13.85;5.55;;;2.80;71.90;;;;;;5009332;28;20113;-58
2021/01/12 10:39:39;;;;;;;10.65;4.25;;;2.80;69.80;;;;;;5008877;28;20033;-58
2021/01/12 10:42:06;;;;;;;7.20;3.05;;;2.80;70.20;;;;;;5008620;28;20448;-58
2021/01/12 10:44:32;;;;;;;9.80;3.05;;;2.90;69.30;;;;;;5008866;28;20034;-59
2021/01/12 10:46:58;;;;;;;13.27;4.97;;;2.90;71.70;;;;;;5009070;28;20076;-58
2021/01/12 10:49:24;;;;;;;11.93;4.10;;;2.90;70.10;;;;;;5009112;28;20390;-58
2021/01/12 10:52:02;;;;;;;9.45;3.78;;;2.90;69.80;;;;;;5008925;28;20064;-58
2021/01/12 10:54:28;;;;;;;8.15;3.00;;;2.90;71.20;;;;;;5008772;28;20037;-59
2021/01/12 10:56:55;;;;;;;11.15;3.50;;;2.90;70.20;;;;;;5008860;28;20393;-58
2021/01/12 10:59:21;;;;;;;7.93;3.10;;;2.90;70.90;;;;;;5006234;28;20561;-58
2021/01/12 11:01:58;;;;;;;7.97;2.95;;;2.80;71.40;;;;;;5008803;28;20037;-58
2021/01/12 11:04:24;;;;;;;6.20;2.15;;;2.80;70.00;;;;;;5008492;28;20034;-59
2021/01/12 11:06:51;;;;;;;8.02;3.15;;;2.90;72.90;;;;;;5008569;28;20144;-58
2021/01/12 11:09:21;;;;;;;6.40;2.67;;;3.00;73.20;;;;;;5008843;28;20076;-58
2021/01/12 11:11:49;;;;;;;11.38;3.75;;;3.00;70.90;;;;;;5008586;28;20037;-58
2021/01/12 11:14:19;;;;;;;10.70;2.30;;;3.00;69.30;;;;;;5008457;28;20420;-58
2021/01/12 11:16:46;;;;;;;7.00;2.45;;;3.10;71.20;;;;;;5008543;28;20068;-59
2021/01/12 11:19:12;;;;;;;6.65;2.78;;;3.20;71.30;;;;;;5007914;28;20041;-59
2021/01/12 11:21:49;;;;;;;6.70;2.40;;;3.20;69.30;;;;;;5008599;28;20061;-59
2021/01/12 11:24:20;;;;;;;5.63;2.50;;;3.20;71.10;;;;;;5008597;28;20437;-58
2021/01/12 11:26:55;;;;;;;6.75;2.65;;;3.20;68.60;;;;;;5005999;28;20557;-58
2021/01/12 11:29:21;;;;;;;9.38;2.60;;;3.30;69.10;;;;;;5008446;28;20049;-58
2021/01/12 11:31:47;;;;;;;7.78;2.78;;;3.30;67.80;;;;;;5007377;28;20038;-58
2021/01/12 11:34:13;;;;;;;11.82;2.50;;;3.30;69.20;;;;;;5007421;28;20037;-58
2021/01/12 11:36:46;;;;;;;8.07;2.78;;;3.30;67.00;;;;;;5008447;28;20095;-58
2021/01/12 11:39:14;;;;;;;8.25;2.03;;;3.30;67.10;;;;;;5008063;28;20026;-58
2021/01/12 11:41:45;;;;;;;9.70;2.75;;;3.30;67.00;;;;;;5001872;28;20577;-58
2021/01/12 11:44:12;;;;;;;7.80;2.50;;;3.30;66.80;;;;;;4992403;28;20039;-58
2021/01/12 11:46:38;;;;;;;6.80;2.20;;;3.30;67.20;;;;;;4992133;28;20038;-58
2021/01/12 11:49:04;;;;;;;5.43;2.30;;;3.30;68.00;;;;;;4997666;28;20486;-58
2021/01/12 11:51:47;;;;;;;8.43;2.80;;;3.30;66.00;;;;;;5011946;28;20172;-58
2021/01/12 11:54:16;;;;;;;8.18;2.88;;;3.30;68.30;;;;;;5010314;28;20092;-58
2021/01/12 11:56:48;;;;;;;6.63;2.22;;;3.30;68.70;;;;;;5012189;28;20040;-58
2021/01/12 11:59:14;;;;;;;11.27;2.88;;;3.40;67.30;;;;;;5011497;28;20041;-58
2021/01/12 12:01:42;;;;;;;6.28;1.63;;;3.50;67.50;;;;;;5011763;28;20040;-58
2021/01/12 12:04:09;;;;;;;4.60;1.98;;;3.50;65.70;;;;;;5011816;28;20036;-58
2021/01/12 12:06:35;;;;;;;4.15;1.90;;;3.60;66.90;;;;;;5011252;28;20103;-58
2021/01/12 12:09:00;;;;;;;8.93;1.77;;;3.70;67.50;;;;;;5011450;28;20026;-58
2021/01/12 12:11:26;;;;;;;4.38;1.70;;;3.70;65.60;;;;;;5014489;28;20188;-58
2021/01/12 12:13:52;;;;;;;5.28;1.65;;;3.70;64.60;;;;;;5011688;28;20033;-58
2021/01/12 12:16:19;;;;;;;6.95;1.70;;;3.80;65.20;;;;;;5003474;28;20033;-58
2021/01/12 12:18:46;;;;;;;6.32;2.33;;;3.70;64.80;;;;;;5011241;28;20041;-58
2021/01/12 12:21:14;;;;;;;14.80;2.65;;;3.80;66.00;;;;;;5011433;28;20037;-58
2021/01/12 12:23:40;;;;;;;11.05;2.67;;;3.90;66.10;;;;;;5016417;28;20030;-58
2021/01/12 12:26:14;;;;;;;5.50;2.03;;;4.00;65.50;;;;;;5011410;28;20497;-58
2021/01/12 12:28:41;;;;;;;5.25;1.70;;;3.90;65.10;;;;;;5011016;28;20056;-58
2021/01/12 12:31:08;;;;;;;4.32;1.48;;;4.00;64.10;;;;;;5010867;28;20073;-58
2021/01/12 12:33:35;;;;;;;8.95;2.45;;;3.90;62.80;;;;;;5010928;28;20030;-58
2021/01/12 12:36:07;;;;;;;5.10;1.83;;;3.90;64.30;;;;;;5011228;28;20030;-59
2021/01/12 12:38:35;;;;;;;5.32;1.77;;;4.00;63.50;;;;;;5010893;28;20338;-58
2021/01/12 12:41:09;;;;;;;7.68;2.92;;;4.10;62.90;;;;;;5010717;28;20041;-58
2021/01/12 12:43:35;;;;;;;8.00;2.08;;;4.00;62.90;;;;;;5011018;28;20026;-58
2021/01/12 12:46:01;;;;;;;4.13;1.52;;;4.00;63.60;;;;;;5010659;28;20030;-58
2021/01/12 12:48:26;;;;;;;5.57;2.05;;;3.90;62.70;;;;;;5010562;28;20029;-58
2021/01/12 12:50:53;;;;;;;4.50;2.60;;;3.90;62.80;;;;;;5010625;28;20041;-57